sensor_id;sensor_type;location;lat;lon;timestamp;temperature;humidity
24638;DHT22;12773;50.162;8.548;2023-02-28T00:01:58;2.90;99.90
24638;DHT22;12773;50.162;8.548;2023-02-28T00:04:45;2.90;99.90
24638;DHT22;12773;50.162;8.548;2023-02-28T00:07:35;2.70;99.90
24638;DHT22;12773;50.162;8.548;2023-02-28T00:10:25;2.70;99.90
24638;DHT22;12773;50.162;8.548;2023-02-28T00:13:12;2.70;99.90
24638;DHT22;12773;50.162;8.548;2023-02-28T00:16:02;2.60;99.90
24638;DHT22;12773;50.162;8.548;2023-02-28T00:18:50;2.50;99.90
24638;DHT22;12773;50.162;8.548;2023-02-28T00:21:37;2.50;99.90
24638;DHT22;12773;50.162;8.548;2023-02-28T00:24:26;2.50;99.90
24638;DHT22;12773;50.162;8.548;2023-02-28T00:27:13;2.50;99.90
24638;DHT22;12773;50.162;8.548;2023-02-28T00:30:01;2.40;99.90
24638;DHT22;12773;50.162;8.548;2023-02-28T00:32:50;2.40;99.90
24638;DHT22;12773;50.162;8.548;2023-02-28T00:35:37;2.40;99.90
24638;DHT22;12773;50.162;8.548;2023-02-28T00:38:24;2.30;99.90
24638;DHT22;12773;50.162;8.548;2023-02-28T00:41:12;2.30;99.90
24638;DHT22;12773;50.162;8.548;2023-02-28T00:43:59;2.40;99.90
24638;DHT22;12773;50.162;8.548;2023-02-28T00:46:46;2.30;99.90
24638;DHT22;12773;50.162;8.548;2023-02-28T00:49:34;2.40;99.90
24638;DHT22;12773;50.162;8.548;2023-02-28T00:52:21;2.30;99.90
24638;DHT22;12773;50.162;8.548;2023-02-28T00:55:08;2.40;99.90
24638;DHT22;12773;50.162;8.548;2023-02-28T00:57:55;2.30;99.90
24638;DHT22;12773;50.162;8.548;2023-02-28T01:00:43;2.40;99.90
24638;DHT22;12773;50.162;8.548;2023-02-28T01:03:32;2.40;99.90
24638;DHT22;12773;50.162;8.548;2023-02-28T01:06:20;2.30;99.90
24638;DHT22;12773;50.162;8.548;2023-02-28T01:09:07;2.30;99.90
24638;DHT22;12773;50.162;8.548;2023-02-28T01:11:54;2.20;99.90
24638;DHT22;12773;50.162;8.548;2023-02-28T01:14:42;2.20;99.90
24638;DHT22;12773;50.162;8.548;2023-02-28T01:17:29;2.20;99.90
24638;DHT22;12773;50.162;8.548;2023-02-28T01:20:17;2.10;99.90
24638;DHT22;12773;50.162;8.548;2023-02-28T01:23:04;2.10;99.90
24638;DHT22;12773;50.162;8.548;2023-02-28T01:25:52;2.00;99.90
24638;DHT22;12773;50.162;8.548;2023-02-28T01:28:39;2.00;99.90
24638;DHT22;12773;50.162;8.548;2023-02-28T01:31:27;2.00;99.90
24638;DHT22;12773;50.162;8.548;2023-02-28T01:34:15;2.00;99.90
24638;DHT22;12773;50.162;8.548;2023-02-28T01:37:02;2.00;99.90
24638;DHT22;12773;50.162;8.548;2023-02-28T01:39:51;2.00;99.90
24638;DHT22;12773;50.162;8.548;2023-02-28T01:42:41;2.00;99.90
24638;DHT22;12773;50.162;8.548;2023-02-28T01:45:30;1.90;99.90
24638;DHT22;12773;50.162;8.548;2023-02-28T01:48:18;2.00;99.90
24638;DHT22;12773;50.162;8.548;2023-02-28T01:51:15;1.90;99.90
24638;DHT22;12773;50.162;8.548;2023-02-28T01:54:05;1.90;99.90
24638;DHT22;12773;50.162;8.548;2023-02-28T01:56:54;1.90;99.90
24638;DHT22;12773;50.162;8.548;2023-02-28T01:59:48;1.90;99.90
24638;DHT22;12773;50.162;8.548;2023-02-28T02:02:37;1.80;99.90
24638;DHT22;12773;50.162;8.548;2023-02-28T02:05:29;1.70;99.90
24638;DHT22;12773;50.162;8.548;2023-02-28T02:08:21;1.80;99.90
24638;DHT22;12773;50.162;8.548;2023-02-28T02:11:11;1.70;99.90
24638;DHT22;12773;50.162;8.548;2023-02-28T02:17:25;1.60;99.90
24638;DHT22;12773;50.162;8.548;2023-02-28T02:23:26;1.70;99.90
24638;DHT22;12773;50.162;8.548;2023-02-28T02:29:47;1.50;99.90
24638;DHT22;12773;50.162;8.548;2023-02-28T02:33:02;1.50;99.90
24638;DHT22;12773;50.162;8.548;2023-02-28T02:36:21;1.50;99.90
24638;DHT22;12773;50.162;8.548;2023-02-28T02:39:11;1.50;99.90
24638;DHT22;12773;50.162;8.548;2023-02-28T02:41:58;1.40;99.90
24638;DHT22;12773;50.162;8.548;2023-02-28T02:44:59;1.40;99.90
24638;DHT22;12773;50.162;8.548;2023-02-28T02:47:45;1.40;99.90
24638;DHT22;12773;50.162;8.548;2023-02-28T02:50:44;1.40;99.90
24638;DHT22;12773;50.162;8.548;2023-02-28T02:53:35;1.40;99.90
24638;DHT22;12773;50.162;8.548;2023-02-28T02:56:25;1.40;99.90
24638;DHT22;12773;50.162;8.548;2023-02-28T02:59:17;1.30;99.90
24638;DHT22;12773;50.162;8.548;2023-02-28T03:02:11;1.40;99.90
24638;DHT22;12773;50.162;8.548;2023-02-28T03:05:01;1.40;99.90
24638;DHT22;12773;50.162;8.548;2023-02-28T03:07:49;1.40;99.90
24638;DHT22;12773;50.162;8.548;2023-02-28T03:10:42;1.40;99.90
24638;DHT22;12773;50.162;8.548;2023-02-28T03:17:06;1.40;99.90
24638;DHT22;12773;50.162;8.548;2023-02-28T03:23:07;1.30;99.90
24638;DHT22;12773;50.162;8.548;2023-02-28T03:26:04;1.20;99.90
24638;DHT22;12773;50.162;8.548;2023-02-28T03:29:20;1.20;99.90
24638;DHT22;12773;50.162;8.548;2023-02-28T03:31:52;1.20;99.90
24638;DHT22;12773;50.162;8.548;2023-02-28T03:34:46;1.20;99.90
24638;DHT22;12773;50.162;8.548;2023-02-28T03:37:31;1.20;99.90
24638;DHT22;12773;50.162;8.548;2023-02-28T03:40:23;1.20;99.90
24638;DHT22;12773;50.162;8.548;2023-02-28T03:43:14;1.20;99.90
24638;DHT22;12773;50.162;8.548;2023-02-28T03:46:05;1.20;99.90
24638;DHT22;12773;50.162;8.548;2023-02-28T03:49:00;1.20;99.90
24638;DHT22;12773;50.162;8.548;2023-02-28T03:51:47;1.20;99.90
24638;DHT22;12773;50.162;8.548;2023-02-28T03:54:48;1.20;99.90
24638;DHT22;12773;50.162;8.548;2023-02-28T03:58:01;1.10;99.90
24638;DHT22;12773;50.162;8.548;2023-02-28T04:00:55;1.10;99.90
24638;DHT22;12773;50.162;8.548;2023-02-28T04:03:40;1.00;99.90
24638;DHT22;12773;50.162;8.548;2023-02-28T04:06:30;1.10;99.90
24638;DHT22;12773;50.162;8.548;2023-02-28T04:09:18;1.00;99.90
24638;DHT22;12773;50.162;8.548;2023-02-28T04:12:06;1.00;99.90
24638;DHT22;12773;50.162;8.548;2023-02-28T04:14:54;1.00;99.90
24638;DHT22;12773;50.162;8.548;2023-02-28T04:17:41;1.00;99.90
24638;DHT22;12773;50.162;8.548;2023-02-28T04:20:29;1.00;99.90
24638;DHT22;12773;50.162;8.548;2023-02-28T04:23:16;0.90;99.90
24638;DHT22;12773;50.162;8.548;2023-02-28T04:26:04;0.90;99.90
24638;DHT22;12773;50.162;8.548;2023-02-28T04:28:52;1.00;99.90
24638;DHT22;12773;50.162;8.548;2023-02-28T04:31:39;1.00;99.90
24638;DHT22;12773;50.162;8.548;2023-02-28T04:34:28;1.00;99.90
24638;DHT22;12773;50.162;8.548;2023-02-28T04:37:16;1.00;99.90
24638;DHT22;12773;50.162;8.548;2023-02-28T04:40:03;0.90;99.90
24638;DHT22;12773;50.162;8.548;2023-02-28T04:42:51;0.90;99.90
24638;DHT22;12773;50.162;8.548;2023-02-28T04:45:38;0.90;99.90
24638;DHT22;12773;50.162;8.548;2023-02-28T04:48:27;0.90;99.90
24638;DHT22;12773;50.162;8.548;2023-02-28T04:51:17;0.90;99.90
24638;DHT22;12773;50.162;8.548;2023-02-28T04:54:06;0.90;99.90
24638;DHT22;12773;50.162;8.548;2023-02-28T04:56:53;1.00;99.90
24638;DHT22;12773;50.162;8.548;2023-02-28T04:59:41;1.00;99.90
24638;DHT22;12773;50.162;8.548;2023-02-28T05:02:29;1.00;99.90
24638;DHT22;12773;50.162;8.548;2023-02-28T05:05:17;1.00;99.90
24638;DHT22;12773;50.162;8.548;2023-02-28T05:08:04;1.10;99.90
24638;DHT22;12773;50.162;8.548;2023-02-28T05:10:51;1.10;99.90
24638;DHT22;12773;50.162;8.548;2023-02-28T05:13:40;1.10;99.90
24638;DHT22;12773;50.162;8.548;2023-02-28T05:16:27;1.20;99.90
24638;DHT22;12773;50.162;8.548;2023-02-28T05:19:14;1.20;99.90
24638;DHT22;12773;50.162;8.548;2023-02-28T05:22:02;1.30;99.90
24638;DHT22;12773;50.162;8.548;2023-02-28T05:24:49;1.40;99.90
24638;DHT22;12773;50.162;8.548;2023-02-28T05:27:36;1.40;99.90
24638;DHT22;12773;50.162;8.548;2023-02-28T05:30:24;1.40;99.90
24638;DHT22;12773;50.162;8.548;2023-02-28T05:33:11;1.40;99.90
24638;DHT22;12773;50.162;8.548;2023-02-28T05:35:59;1.40;99.90
24638;DHT22;12773;50.162;8.548;2023-02-28T05:38:49;1.40;99.90
24638;DHT22;12773;50.162;8.548;2023-02-28T05:41:37;1.50;99.90
24638;DHT22;12773;50.162;8.548;2023-02-28T05:44:24;1.50;99.90
24638;DHT22;12773;50.162;8.548;2023-02-28T05:47:12;1.50;99.90
24638;DHT22;12773;50.162;8.548;2023-02-28T05:50:01;1.50;99.90
24638;DHT22;12773;50.162;8.548;2023-02-28T05:52:51;1.60;99.90
24638;DHT22;12773;50.162;8.548;2023-02-28T05:55:39;1.60;99.90
24638;DHT22;12773;50.162;8.548;2023-02-28T05:58:28;1.50;99.90
24638;DHT22;12773;50.162;8.548;2023-02-28T06:01:31;1.50;99.90
24638;DHT22;12773;50.162;8.548;2023-02-28T06:04:21;1.60;99.90
24638;DHT22;12773;50.162;8.548;2023-02-28T06:07:10;1.50;99.90
24638;DHT22;12773;50.162;8.548;2023-02-28T06:09:57;1.50;99.90
24638;DHT22;12773;50.162;8.548;2023-02-28T06:12:47;1.50;99.90
24638;DHT22;12773;50.162;8.548;2023-02-28T06:15:34;1.30;99.90
24638;DHT22;12773;50.162;8.548;2023-02-28T06:18:21;1.40;99.90
24638;DHT22;12773;50.162;8.548;2023-02-28T06:21:09;1.30;99.90
24638;DHT22;12773;50.162;8.548;2023-02-28T06:23:57;1.20;99.90
24638;DHT22;12773;50.162;8.548;2023-02-28T06:26:45;1.30;99.90
24638;DHT22;12773;50.162;8.548;2023-02-28T06:29:34;1.30;99.90
24638;DHT22;12773;50.162;8.548;2023-02-28T06:32:22;1.30;99.90
24638;DHT22;12773;50.162;8.548;2023-02-28T06:35:09;1.30;99.90
24638;DHT22;12773;50.162;8.548;2023-02-28T06:37:57;1.30;99.90
24638;DHT22;12773;50.162;8.548;2023-02-28T06:40:49;1.30;99.90
24638;DHT22;12773;50.162;8.548;2023-02-28T06:43:39;1.30;99.90
24638;DHT22;12773;50.162;8.548;2023-02-28T06:46:27;1.30;99.90
24638;DHT22;12773;50.162;8.548;2023-02-28T06:49:15;1.30;99.90
24638;DHT22;12773;50.162;8.548;2023-02-28T06:52:02;1.30;99.90
24638;DHT22;12773;50.162;8.548;2023-02-28T06:54:50;1.30;99.90
24638;DHT22;12773;50.162;8.548;2023-02-28T06:57:39;1.30;99.90
24638;DHT22;12773;50.162;8.548;2023-02-28T07:00:26;1.30;99.90
24638;DHT22;12773;50.162;8.548;2023-02-28T07:03:13;1.40;99.90
24638;DHT22;12773;50.162;8.548;2023-02-28T07:06:02;1.40;99.90
24638;DHT22;12773;50.162;8.548;2023-02-28T07:08:51;1.50;99.90
24638;DHT22;12773;50.162;8.548;2023-02-28T07:11:39;1.60;99.90
24638;DHT22;12773;50.162;8.548;2023-02-28T07:14:27;1.70;99.90
24638;DHT22;12773;50.162;8.548;2023-02-28T07:17:14;1.70;99.90
24638;DHT22;12773;50.162;8.548;2023-02-28T07:20:03;1.70;99.90
24638;DHT22;12773;50.162;8.548;2023-02-28T07:22:50;1.80;99.90
24638;DHT22;12773;50.162;8.548;2023-02-28T07:25:39;1.90;99.90
24638;DHT22;12773;50.162;8.548;2023-02-28T07:28:27;1.90;99.90
24638;DHT22;12773;50.162;8.548;2023-02-28T07:31:14;2.00;99.90
24638;DHT22;12773;50.162;8.548;2023-02-28T07:34:02;2.00;99.90
24638;DHT22;12773;50.162;8.548;2023-02-28T07:36:49;2.10;99.90
24638;DHT22;12773;50.162;8.548;2023-02-28T07:39:40;2.00;99.90
24638;DHT22;12773;50.162;8.548;2023-02-28T07:42:30;2.10;99.90
24638;DHT22;12773;50.162;8.548;2023-02-28T07:45:17;2.10;99.90
24638;DHT22;12773;50.162;8.548;2023-02-28T07:48:05;2.20;99.90
24638;DHT22;12773;50.162;8.548;2023-02-28T07:50:55;2.30;99.90
24638;DHT22;12773;50.162;8.548;2023-02-28T07:53:43;2.30;99.90
24638;DHT22;12773;50.162;8.548;2023-02-28T07:56:30;2.50;99.90
24638;DHT22;12773;50.162;8.548;2023-02-28T07:59:17;2.50;99.90
24638;DHT22;12773;50.162;8.548;2023-02-28T08:02:05;2.60;99.90
24638;DHT22;12773;50.162;8.548;2023-02-28T08:04:52;2.70;99.90
24638;DHT22;12773;50.162;8.548;2023-02-28T08:07:40;2.50;99.90
24638;DHT22;12773;50.162;8.548;2023-02-28T08:10:27;2.50;99.90
24638;DHT22;12773;50.162;8.548;2023-02-28T08:13:14;2.70;99.90
24638;DHT22;12773;50.162;8.548;2023-02-28T08:16:02;2.90;99.90
24638;DHT22;12773;50.162;8.548;2023-02-28T08:18:51;2.90;99.90
24638;DHT22;12773;50.162;8.548;2023-02-28T08:21:39;3.00;99.90
24638;DHT22;12773;50.162;8.548;2023-02-28T08:24:26;3.00;99.90
24638;DHT22;12773;50.162;8.548;2023-02-28T08:27:18;3.00;99.90
24638;DHT22;12773;50.162;8.548;2023-02-28T08:30:03;3.00;99.90
24638;DHT22;12773;50.162;8.548;2023-02-28T08:32:50;3.00;99.90
24638;DHT22;12773;50.162;8.548;2023-02-28T08:35:37;3.20;99.90
24638;DHT22;12773;50.162;8.548;2023-02-28T08:38:25;3.20;99.90
24638;DHT22;12773;50.162;8.548;2023-02-28T08:41:13;3.20;99.90
24638;DHT22;12773;50.162;8.548;2023-02-28T08:44:00;3.30;99.90
24638;DHT22;12773;50.162;8.548;2023-02-28T08:46:48;3.40;99.90
24638;DHT22;12773;50.162;8.548;2023-02-28T08:49:36;3.60;99.90
24638;DHT22;12773;50.162;8.548;2023-02-28T08:52:23;3.60;99.90
24638;DHT22;12773;50.162;8.548;2023-02-28T08:55:11;3.70;99.90
24638;DHT22;12773;50.162;8.548;2023-02-28T08:57:58;3.90;99.90
24638;DHT22;12773;50.162;8.548;2023-02-28T09:00:47;4.20;99.90
24638;DHT22;12773;50.162;8.548;2023-02-28T09:03:34;4.00;99.90
24638;DHT22;12773;50.162;8.548;2023-02-28T09:06:23;4.20;99.90
24638;DHT22;12773;50.162;8.548;2023-02-28T09:09:10;4.60;99.90
24638;DHT22;12773;50.162;8.548;2023-02-28T09:11:57;4.70;99.90
24638;DHT22;12773;50.162;8.548;2023-02-28T09:14:45;4.70;99.90
24638;DHT22;12773;50.162;8.548;2023-02-28T09:17:32;4.80;99.90
24638;DHT22;12773;50.162;8.548;2023-02-28T09:20:19;4.80;99.90
24638;DHT22;12773;50.162;8.548;2023-02-28T09:23:08;5.00;99.90
24638;DHT22;12773;50.162;8.548;2023-02-28T09:25:55;5.30;99.90
24638;DHT22;12773;50.162;8.548;2023-02-28T09:28:42;5.80;99.90
24638;DHT22;12773;50.162;8.548;2023-02-28T09:31:30;5.80;97.60
24638;DHT22;12773;50.162;8.548;2023-02-28T09:34:17;5.80;98.20
24638;DHT22;12773;50.162;8.548;2023-02-28T09:37:05;5.90;96.70
24638;DHT22;12773;50.162;8.548;2023-02-28T09:39:52;6.10;97.40
24638;DHT22;12773;50.162;8.548;2023-02-28T09:42:39;6.60;95.90
24638;DHT22;12773;50.162;8.548;2023-02-28T09:45:39;6.80;97.40
24638;DHT22;12773;50.162;8.548;2023-02-28T09:48:35;6.40;93.50
24638;DHT22;12773;50.162;8.548;2023-02-28T09:54:26;6.30;93.80
24638;DHT22;12773;50.162;8.548;2023-02-28T09:57:36;5.90;93.80
24638;DHT22;12773;50.162;8.548;2023-02-28T10:00:40;5.80;92.90
24638;DHT22;12773;50.162;8.548;2023-02-28T10:03:38;5.80;93.10
24638;DHT22;12773;50.162;8.548;2023-02-28T10:06:30;6.60;95.30
24638;DHT22;12773;50.162;8.548;2023-02-28T10:09:27;7.40;93.80
24638;DHT22;12773;50.162;8.548;2023-02-28T10:12:11;7.80;90.50
24638;DHT22;12773;50.162;8.548;2023-02-28T10:15:00;8.30;92.10
24638;DHT22;12773;50.162;8.548;2023-02-28T10:17:51;8.40;87.30
24638;DHT22;12773;50.162;8.548;2023-02-28T10:20:41;8.50;88.70
24638;DHT22;12773;50.162;8.548;2023-02-28T10:23:32;8.60;86.90
24638;DHT22;12773;50.162;8.548;2023-02-28T10:26:20;7.80;82.10
24638;DHT22;12773;50.162;8.548;2023-02-28T10:29:08;7.00;84.00
24638;DHT22;12773;50.162;8.548;2023-02-28T10:31:56;6.50;85.50
24638;DHT22;12773;50.162;8.548;2023-02-28T10:34:44;6.30;87.20
24638;DHT22;12773;50.162;8.548;2023-02-28T10:37:32;6.20;88.40
24638;DHT22;12773;50.162;8.548;2023-02-28T10:49:02;6.20;87.00
24638;DHT22;12773;50.162;8.548;2023-02-28T10:51:52;5.70;88.30
24638;DHT22;12773;50.162;8.548;2023-02-28T10:54:39;5.60;90.20
24638;DHT22;12773;50.162;8.548;2023-02-28T10:57:27;6.00;90.90
24638;DHT22;12773;50.162;8.548;2023-02-28T11:00:21;6.30;90.50
24638;DHT22;12773;50.162;8.548;2023-02-28T11:03:23;6.00;89.50
24638;DHT22;12773;50.162;8.548;2023-02-28T11:05:59;6.00;89.00
24638;DHT22;12773;50.162;8.548;2023-02-28T11:08:51;5.90;89.70
24638;DHT22;12773;50.162;8.548;2023-02-28T11:11:44;6.00;89.50
24638;DHT22;12773;50.162;8.548;2023-02-28T11:14:36;5.80;89.50
24638;DHT22;12773;50.162;8.548;2023-02-28T11:17:30;5.90;89.70
24638;DHT22;12773;50.162;8.548;2023-02-28T11:20:18;5.70;87.90
24638;DHT22;12773;50.162;8.548;2023-02-28T11:23:04;5.80;88.50
24638;DHT22;12773;50.162;8.548;2023-02-28T11:25:54;6.10;89.80
24638;DHT22;12773;50.162;8.548;2023-02-28T11:28:43;6.50;88.40
24638;DHT22;12773;50.162;8.548;2023-02-28T11:31:30;6.40;84.90
24638;DHT22;12773;50.162;8.548;2023-02-28T11:34:26;6.40;85.50
24638;DHT22;12773;50.162;8.548;2023-02-28T11:37:17;6.80;84.50
24638;DHT22;12773;50.162;8.548;2023-02-28T11:40:14;7.10;85.40
24638;DHT22;12773;50.162;8.548;2023-02-28T11:52:21;8.00;85.00
24638;DHT22;12773;50.162;8.548;2023-02-28T11:55:14;7.90;78.40
24638;DHT22;12773;50.162;8.548;2023-02-28T11:58:38;7.70;77.80
24638;DHT22;12773;50.162;8.548;2023-02-28T12:01:28;8.20;79.60
24638;DHT22;12773;50.162;8.548;2023-02-28T12:04:38;8.00;80.80
24638;DHT22;12773;50.162;8.548;2023-02-28T12:10:31;7.80;76.00
24638;DHT22;12773;50.162;8.548;2023-02-28T12:13:34;8.00;75.90
24638;DHT22;12773;50.162;8.548;2023-02-28T12:16:37;7.80;77.70
24638;DHT22;12773;50.162;8.548;2023-02-28T12:19:37;8.50;77.40
24638;DHT22;12773;50.162;8.548;2023-02-28T12:22:27;8.70;77.40
24638;DHT22;12773;50.162;8.548;2023-02-28T12:25:45;8.80;74.60
24638;DHT22;12773;50.162;8.548;2023-02-28T12:28:43;8.70;73.30
24638;DHT22;12773;50.162;8.548;2023-02-28T12:31:33;8.20;73.60
24638;DHT22;12773;50.162;8.548;2023-02-28T12:34:20;8.30;75.80
24638;DHT22;12773;50.162;8.548;2023-02-28T12:37:21;9.00;78.30
24638;DHT22;12773;50.162;8.548;2023-02-28T12:40:15;8.90;73.50
24638;DHT22;12773;50.162;8.548;2023-02-28T12:43:07;9.70;73.90
24638;DHT22;12773;50.162;8.548;2023-02-28T12:46:19;10.20;73.10
24638;DHT22;12773;50.162;8.548;2023-02-28T12:49:10;9.80;68.30
24638;DHT22;12773;50.162;8.548;2023-02-28T12:51:59;10.40;73.20
24638;DHT22;12773;50.162;8.548;2023-02-28T12:54:56;11.00;70.60
24638;DHT22;12773;50.162;8.548;2023-02-28T13:00:36;10.20;71.50
24638;DHT22;12773;50.162;8.548;2023-02-28T13:10:03;9.90;63.40
24638;DHT22;12773;50.162;8.548;2023-02-28T13:12:54;10.30;67.90
24638;DHT22;12773;50.162;8.548;2023-02-28T13:15:57;9.80;66.00
24638;DHT22;12773;50.162;8.548;2023-02-28T13:18:47;9.90;68.80
24638;DHT22;12773;50.162;8.548;2023-02-28T13:21:41;8.90;67.60
24638;DHT22;12773;50.162;8.548;2023-02-28T13:24:44;8.90;69.30
24638;DHT22;12773;50.162;8.548;2023-02-28T13:27:39;8.60;68.20
24638;DHT22;12773;50.162;8.548;2023-02-28T13:36:44;8.10;71.60
24638;DHT22;12773;50.162;8.548;2023-02-28T13:42:35;8.40;70.50
24638;DHT22;12773;50.162;8.548;2023-02-28T13:45:26;8.30;70.80
24638;DHT22;12773;50.162;8.548;2023-02-28T13:48:19;8.00;70.60
24638;DHT22;12773;50.162;8.548;2023-02-28T13:51:39;8.00;71.30
24638;DHT22;12773;50.162;8.548;2023-02-28T13:57:58;8.00;73.00
24638;DHT22;12773;50.162;8.548;2023-02-28T14:00:52;8.20;74.10
24638;DHT22;12773;50.162;8.548;2023-02-28T14:06:54;7.80;72.20
24638;DHT22;12773;50.162;8.548;2023-02-28T14:09:49;8.30;74.20
24638;DHT22;12773;50.162;8.548;2023-02-28T14:16:00;7.70;72.80
24638;DHT22;12773;50.162;8.548;2023-02-28T14:19:00;8.10;74.90
24638;DHT22;12773;50.162;8.548;2023-02-28T14:31:40;8.40;72.10
24638;DHT22;12773;50.162;8.548;2023-02-28T14:37:27;7.90;75.00
24638;DHT22;12773;50.162;8.548;2023-02-28T14:40:22;8.10;76.10
24638;DHT22;12773;50.162;8.548;2023-02-28T14:43:23;8.00;75.70
24638;DHT22;12773;50.162;8.548;2023-02-28T14:46:11;7.80;75.10
24638;DHT22;12773;50.162;8.548;2023-02-28T14:48:59;7.80;75.70
24638;DHT22;12773;50.162;8.548;2023-02-28T14:52:00;7.70;75.90
24638;DHT22;12773;50.162;8.548;2023-02-28T14:54:40;7.70;75.90
24638;DHT22;12773;50.162;8.548;2023-02-28T14:57:30;7.80;78.00
24638;DHT22;12773;50.162;8.548;2023-02-28T15:03:30;8.20;75.40
24638;DHT22;12773;50.162;8.548;2023-02-28T15:06:16;8.50;76.70
24638;DHT22;12773;50.162;8.548;2023-02-28T15:09:09;8.40;73.80
24638;DHT22;12773;50.162;8.548;2023-02-28T15:11:56;8.20;76.40
24638;DHT22;12773;50.162;8.548;2023-02-28T15:14:44;8.40;74.00
24638;DHT22;12773;50.162;8.548;2023-02-28T15:17:32;8.20;74.00
24638;DHT22;12773;50.162;8.548;2023-02-28T15:20:19;8.40;73.40
24638;DHT22;12773;50.162;8.548;2023-02-28T15:23:07;8.20;73.70
24638;DHT22;12773;50.162;8.548;2023-02-28T15:25:55;8.10;73.90
24638;DHT22;12773;50.162;8.548;2023-02-28T15:28:43;7.80;73.90
24638;DHT22;12773;50.162;8.548;2023-02-28T15:31:45;7.60;75.30
24638;DHT22;12773;50.162;8.548;2023-02-28T15:37:40;7.20;77.80
24638;DHT22;12773;50.162;8.548;2023-02-28T15:40:30;7.10;78.80
24638;DHT22;12773;50.162;8.548;2023-02-28T15:43:23;6.90;79.90
24638;DHT22;12773;50.162;8.548;2023-02-28T15:46:13;6.80;81.30
24638;DHT22;12773;50.162;8.548;2023-02-28T15:49:02;6.80;81.10
24638;DHT22;12773;50.162;8.548;2023-02-28T15:51:51;6.70;82.00
24638;DHT22;12773;50.162;8.548;2023-02-28T15:54:40;6.70;82.90
24638;DHT22;12773;50.162;8.548;2023-02-28T15:57:29;6.80;83.30
24638;DHT22;12773;50.162;8.548;2023-02-28T16:00:19;6.90;83.90
24638;DHT22;12773;50.162;8.548;2023-02-28T16:03:27;6.80;83.50
24638;DHT22;12773;50.162;8.548;2023-02-28T16:09:10;6.70;84.00
24638;DHT22;12773;50.162;8.548;2023-02-28T16:12:02;6.50;83.50
24638;DHT22;12773;50.162;8.548;2023-02-28T16:14:52;6.40;83.80
24638;DHT22;12773;50.162;8.548;2023-02-28T16:17:39;6.40;84.70
24638;DHT22;12773;50.162;8.548;2023-02-28T16:20:29;6.40;85.20
24638;DHT22;12773;50.162;8.548;2023-02-28T16:23:17;6.30;85.00
24638;DHT22;12773;50.162;8.548;2023-02-28T16:26:05;6.40;85.50
24638;DHT22;12773;50.162;8.548;2023-02-28T16:28:53;6.40;85.80
24638;DHT22;12773;50.162;8.548;2023-02-28T16:31:41;6.40;85.60
24638;DHT22;12773;50.162;8.548;2023-02-28T16:34:29;6.40;86.50
24638;DHT22;12773;50.162;8.548;2023-02-28T16:37:17;6.30;86.30
24638;DHT22;12773;50.162;8.548;2023-02-28T16:40:05;6.30;87.10
24638;DHT22;12773;50.162;8.548;2023-02-28T16:42:57;6.20;86.80
24638;DHT22;12773;50.162;8.548;2023-02-28T16:45:45;6.10;87.00
24638;DHT22;12773;50.162;8.548;2023-02-28T16:48:33;6.00;87.60
24638;DHT22;12773;50.162;8.548;2023-02-28T16:51:20;5.90;87.50
24638;DHT22;12773;50.162;8.548;2023-02-28T16:54:07;5.90;87.40
24638;DHT22;12773;50.162;8.548;2023-02-28T16:56:54;5.80;88.20
24638;DHT22;12773;50.162;8.548;2023-02-28T16:59:42;5.70;88.80
24638;DHT22;12773;50.162;8.548;2023-02-28T17:02:29;5.70;89.80
24638;DHT22;12773;50.162;8.548;2023-02-28T17:05:17;5.50;90.00
24638;DHT22;12773;50.162;8.548;2023-02-28T17:08:05;5.50;89.50
24638;DHT22;12773;50.162;8.548;2023-02-28T17:10:52;5.50;89.80
24638;DHT22;12773;50.162;8.548;2023-02-28T17:13:39;5.40;90.10
24638;DHT22;12773;50.162;8.548;2023-02-28T17:16:31;5.40;90.20
24638;DHT22;12773;50.162;8.548;2023-02-28T17:19:19;5.30;90.40
24638;DHT22;12773;50.162;8.548;2023-02-28T17:22:08;5.30;90.70
24638;DHT22;12773;50.162;8.548;2023-02-28T17:24:55;5.30;90.20
24638;DHT22;12773;50.162;8.548;2023-02-28T17:27:44;5.40;90.40
24638;DHT22;12773;50.162;8.548;2023-02-28T17:30:33;5.30;90.30
24638;DHT22;12773;50.162;8.548;2023-02-28T17:33:21;5.20;90.60
24638;DHT22;12773;50.162;8.548;2023-02-28T17:36:13;5.20;91.00
24638;DHT22;12773;50.162;8.548;2023-02-28T17:39:01;5.10;91.00
24638;DHT22;12773;50.162;8.548;2023-02-28T17:41:49;5.00;91.00
24638;DHT22;12773;50.162;8.548;2023-02-28T17:44:37;5.00;91.20
24638;DHT22;12773;50.162;8.548;2023-02-28T17:47:25;4.90;91.30
24638;DHT22;12773;50.162;8.548;2023-02-28T17:50:19;4.90;91.30
24638;DHT22;12773;50.162;8.548;2023-02-28T17:53:05;4.90;91.40
24638;DHT22;12773;50.162;8.548;2023-02-28T17:55:53;4.90;91.30
24638;DHT22;12773;50.162;8.548;2023-02-28T17:58:40;4.90;91.50
24638;DHT22;12773;50.162;8.548;2023-02-28T18:01:28;4.90;91.30
24638;DHT22;12773;50.162;8.548;2023-02-28T18:04:15;4.80;91.50
24638;DHT22;12773;50.162;8.548;2023-02-28T18:07:03;4.70;91.50
24638;DHT22;12773;50.162;8.548;2023-02-28T18:09:50;4.70;91.60
24638;DHT22;12773;50.162;8.548;2023-02-28T18:12:37;4.70;91.80
24638;DHT22;12773;50.162;8.548;2023-02-28T18:15:25;4.70;91.90
24638;DHT22;12773;50.162;8.548;2023-02-28T18:18:12;4.60;92.00
24638;DHT22;12773;50.162;8.548;2023-02-28T18:21:09;4.50;92.40
24638;DHT22;12773;50.162;8.548;2023-02-28T18:23:52;4.50;92.90
24638;DHT22;12773;50.162;8.548;2023-02-28T18:26:39;4.50;93.10
24638;DHT22;12773;50.162;8.548;2023-02-28T18:29:27;4.40;93.40
24638;DHT22;12773;50.162;8.548;2023-02-28T18:32:15;4.30;93.60
24638;DHT22;12773;50.162;8.548;2023-02-28T18:35:03;4.30;93.80
24638;DHT22;12773;50.162;8.548;2023-02-28T18:37:50;4.30;94.10
24638;DHT22;12773;50.162;8.548;2023-02-28T18:40:38;4.30;94.30
24638;DHT22;12773;50.162;8.548;2023-02-28T18:43:26;4.30;94.50
24638;DHT22;12773;50.162;8.548;2023-02-28T18:46:16;4.20;94.70
24638;DHT22;12773;50.162;8.548;2023-02-28T18:49:03;4.20;95.00
24638;DHT22;12773;50.162;8.548;2023-02-28T18:51:52;4.10;95.60
24638;DHT22;12773;50.162;8.548;2023-02-28T18:54:40;4.10;95.60
24638;DHT22;12773;50.162;8.548;2023-02-28T18:57:27;4.10;95.80
24638;DHT22;12773;50.162;8.548;2023-02-28T19:00:15;4.20;95.90
24638;DHT22;12773;50.162;8.548;2023-02-28T19:03:08;4.00;96.30
24638;DHT22;12773;50.162;8.548;2023-02-28T19:05:56;4.00;96.70
24638;DHT22;12773;50.162;8.548;2023-02-28T19:08:44;4.10;96.90
24638;DHT22;12773;50.162;8.548;2023-02-28T19:11:32;4.00;97.00
24638;DHT22;12773;50.162;8.548;2023-02-28T19:14:21;4.10;97.00
24638;DHT22;12773;50.162;8.548;2023-02-28T19:17:09;4.10;97.10
24638;DHT22;12773;50.162;8.548;2023-02-28T19:19:56;4.00;97.50
24638;DHT22;12773;50.162;8.548;2023-02-28T19:22:44;4.00;97.80
24638;DHT22;12773;50.162;8.548;2023-02-28T19:25:31;4.00;98.00
24638;DHT22;12773;50.162;8.548;2023-02-28T19:28:18;3.90;98.10
24638;DHT22;12773;50.162;8.548;2023-02-28T19:31:17;3.90;98.40
24638;DHT22;12773;50.162;8.548;2023-02-28T19:34:05;3.90;98.60
24638;DHT22;12773;50.162;8.548;2023-02-28T19:36:52;3.80;98.80
24638;DHT22;12773;50.162;8.548;2023-02-28T19:39:44;3.80;99.00
24638;DHT22;12773;50.162;8.548;2023-02-28T19:42:31;3.80;99.20